sensor_id;sensor_type;location;lat;lon;timestamp;pressure;altitude;pressure_sealevel;temperature
65823;BMP180;52585;47.566;19.056;2022-10-13T00:01:37;101187.00;;;14.60
65823;BMP180;52585;47.566;19.056;2022-10-13T00:04:03;101191.80;;;14.60
65823;BMP180;52585;47.566;19.056;2022-10-13T00:06:29;101188.60;;;14.60
65823;BMP180;52585;47.566;19.056;2022-10-13T00:08:58;101185.40;;;14.52
65823;BMP180;52585;47.566;19.056;2022-10-13T00:11:27;101183.40;;;14.50
65823;BMP180;52585;47.566;19.056;2022-10-13T00:13:59;101186.40;;;14.50
65823;BMP180;52585;47.566;19.056;2022-10-13T00:16:27;101187.80;;;14.50
65823;BMP180;52585;47.566;19.056;2022-10-13T00:18:54;101188.20;;;14.50
65823;BMP180;52585;47.566;19.056;2022-10-13T00:21:24;101187.20;;;14.46
65823;BMP180;52585;47.566;19.056;2022-10-13T00:23:52;101182.00;;;14.40
65823;BMP180;52585;47.566;19.056;2022-10-13T00:26:22;101184.20;;;14.42
65823;BMP180;52585;47.566;19.056;2022-10-13T00:28:50;101182.20;;;14.40
65823;BMP180;52585;47.566;19.056;2022-10-13T00:31:27;101187.40;;;14.40
65823;BMP180;52585;47.566;19.056;2022-10-13T00:33:55;101188.00;;;14.40
65823;BMP180;52585;47.566;19.056;2022-10-13T00:36:23;101184.00;;;14.38
65823;BMP180;52585;47.566;19.056;2022-10-13T00:38:50;101183.80;;;14.36
65823;BMP180;52585;47.566;19.056;2022-10-13T00:41:16;101179.40;;;14.30
65823;BMP180;52585;47.566;19.056;2022-10-13T00:46:16;101178.20;;;14.30
65823;BMP180;52585;47.566;19.056;2022-10-13T00:48:47;101179.60;;;14.30
65823;BMP180;52585;47.566;19.056;2022-10-13T00:51:21;101177.80;;;14.30
65823;BMP180;52585;47.566;19.056;2022-10-13T00:53:48;101180.20;;;14.28
65823;BMP180;52585;47.566;19.056;2022-10-13T00:56:18;101176.80;;;14.22
65823;BMP180;52585;47.566;19.056;2022-10-13T00:58:47;101173.40;;;14.20
65823;BMP180;52585;47.566;19.056;2022-10-13T01:01:13;101168.60;;;14.20
65823;BMP180;52585;47.566;19.056;2022-10-13T01:03:39;101170.20;;;14.20
65823;BMP180;52585;47.566;19.056;2022-10-13T01:06:06;101167.00;;;14.10
65823;BMP180;52585;47.566;19.056;2022-10-13T01:08:34;101167.00;;;14.10
65823;BMP180;52585;47.566;19.056;2022-10-13T01:11:38;101171.40;;;14.10
65823;BMP180;52585;47.566;19.056;2022-10-13T01:14:25;101174.80;;;14.10
65823;BMP180;52585;47.566;19.056;2022-10-13T01:17:08;101171.20;;;14.04
65823;BMP180;52585;47.566;19.056;2022-10-13T01:23:05;101171.40;;;14.04
65823;BMP180;52585;47.566;19.056;2022-10-13T01:25:50;101175.20;;;14.02
65823;BMP180;52585;47.566;19.056;2022-10-13T01:29:19;101168.60;;;14.04
65823;BMP180;52585;47.566;19.056;2022-10-13T01:32:53;101168.40;;;14.00
65823;BMP180;52585;47.566;19.056;2022-10-13T01:38:37;101160.60;;;14.00
65823;BMP180;52585;47.566;19.056;2022-10-13T01:46:52;101161.60;;;13.90
65823;BMP180;52585;47.566;19.056;2022-10-13T01:49:23;101162.00;;;13.90
65823;BMP180;52585;47.566;19.056;2022-10-13T01:51:55;101156.40;;;13.90
65823;BMP180;52585;47.566;19.056;2022-10-13T01:54:24;101156.60;;;13.90
65823;BMP180;52585;47.566;19.056;2022-10-13T01:56:54;101152.60;;;13.90
65823;BMP180;52585;47.566;19.056;2022-10-13T01:59:23;101153.80;;;13.90
65823;BMP180;52585;47.566;19.056;2022-10-13T02:02:18;101154.80;;;13.90
65823;BMP180;52585;47.566;19.056;2022-10-13T02:11:03;101149.40;;;13.80
65823;BMP180;52585;47.566;19.056;2022-10-13T02:13:36;101151.20;;;13.80
65823;BMP180;52585;47.566;19.056;2022-10-13T02:16:03;101151.60;;;13.80
65823;BMP180;52585;47.566;19.056;2022-10-13T02:18:34;101159.20;;;13.80
65823;BMP180;52585;47.566;19.056;2022-10-13T02:21:03;101157.20;;;13.74
65823;BMP180;52585;47.566;19.056;2022-10-13T02:23:30;101155.00;;;13.70
65823;BMP180;52585;47.566;19.056;2022-10-13T02:25:58;101156.80;;;13.70
65823;BMP180;52585;47.566;19.056;2022-10-13T02:28:26;101159.20;;;13.70
65823;BMP180;52585;47.566;19.056;2022-10-13T02:30:52;101159.40;;;13.70
65823;BMP180;52585;47.566;19.056;2022-10-13T02:33:18;101162.80;;;13.70
65823;BMP180;52585;47.566;19.056;2022-10-13T02:35:44;101162.00;;;13.70
65823;BMP180;52585;47.566;19.056;2022-10-13T02:38:10;101160.00;;;13.70
65823;BMP180;52585;47.566;19.056;2022-10-13T02:40:37;101159.20;;;13.70
65823;BMP180;52585;47.566;19.056;2022-10-13T02:43:05;101159.60;;;13.70
65823;BMP180;52585;47.566;19.056;2022-10-13T02:45:31;101153.40;;;13.70
65823;BMP180;52585;47.566;19.056;2022-10-13T02:47:58;101151.00;;;13.70
65823;BMP180;52585;47.566;19.056;2022-10-13T02:50:24;101153.60;;;13.62
65823;BMP180;52585;47.566;19.056;2022-10-13T02:52:49;101157.80;;;13.60
65823;BMP180;52585;47.566;19.056;2022-10-13T02:55:15;101159.00;;;13.60
65823;BMP180;52585;47.566;19.056;2022-10-13T02:57:41;101155.80;;;13.60
65823;BMP180;52585;47.566;19.056;2022-10-13T03:00:08;101153.00;;;13.60
65823;BMP180;52585;47.566;19.056;2022-10-13T03:02:33;101158.40;;;13.60
65823;BMP180;52585;47.566;19.056;2022-10-13T03:04:59;101156.40;;;13.56
65823;BMP180;52585;47.566;19.056;2022-10-13T03:07:25;101155.00;;;13.52
65823;BMP180;52585;47.566;19.056;2022-10-13T03:09:51;101153.60;;;13.52
65823;BMP180;52585;47.566;19.056;2022-10-13T03:12:18;101152.80;;;13.50
65823;BMP180;52585;47.566;19.056;2022-10-13T03:14:44;101151.60;;;13.50
65823;BMP180;52585;47.566;19.056;2022-10-13T03:17:10;101153.40;;;13.50
65823;BMP180;52585;47.566;19.056;2022-10-13T03:19:36;101157.40;;;13.50
65823;BMP180;52585;47.566;19.056;2022-10-13T03:22:02;101151.40;;;13.40
65823;BMP180;52585;47.566;19.056;2022-10-13T03:24:28;101147.60;;;13.40
65823;BMP180;52585;47.566;19.056;2022-10-13T03:26:55;101150.00;;;13.40
65823;BMP180;52585;47.566;19.056;2022-10-13T03:29:21;101147.60;;;13.38
65823;BMP180;52585;47.566;19.056;2022-10-13T03:31:48;101147.40;;;13.30
65823;BMP180;52585;47.566;19.056;2022-10-13T03:34:16;101148.60;;;13.30
65823;BMP180;52585;47.566;19.056;2022-10-13T03:36:44;101150.00;;;13.30
65823;BMP180;52585;47.566;19.056;2022-10-13T03:39:12;101149.00;;;13.30
65823;BMP180;52585;47.566;19.056;2022-10-13T03:41:38;101145.80;;;13.30
65823;BMP180;52585;47.566;19.056;2022-10-13T03:44:03;101143.80;;;13.30
65823;BMP180;52585;47.566;19.056;2022-10-13T03:46:30;101144.20;;;13.30
65823;BMP180;52585;47.566;19.056;2022-10-13T03:48:56;101141.20;;;13.30
65823;BMP180;52585;47.566;19.056;2022-10-13T03:51:23;101139.80;;;13.30
65823;BMP180;52585;47.566;19.056;2022-10-13T03:53:50;101144.00;;;13.30
65823;BMP180;52585;47.566;19.056;2022-10-13T03:56:25;101135.80;;;13.30
65823;BMP180;52585;47.566;19.056;2022-10-13T03:58:54;101139.80;;;13.28
65823;BMP180;52585;47.566;19.056;2022-10-13T04:01:23;101144.20;;;13.20
65823;BMP180;52585;47.566;19.056;2022-10-13T04:03:52;101145.40;;;13.20
65823;BMP180;52585;47.566;19.056;2022-10-13T04:06:21;101142.60;;;13.20
65823;BMP180;52585;47.566;19.056;2022-10-13T04:08:48;101142.80;;;13.20
65823;BMP180;52585;47.566;19.056;2022-10-13T04:11:15;101143.20;;;13.18
65823;BMP180;52585;47.566;19.056;2022-10-13T04:13:43;101143.40;;;13.10
65823;BMP180;52585;47.566;19.056;2022-10-13T04:16:20;101140.20;;;13.10
65823;BMP180;52585;47.566;19.056;2022-10-13T04:18:55;101132.20;;;13.10
65823;BMP180;52585;47.566;19.056;2022-10-13T04:21:23;101135.80;;;13.10
65823;BMP180;52585;47.566;19.056;2022-10-13T04:23:50;101129.00;;;13.10
65823;BMP180;52585;47.566;19.056;2022-10-13T04:26:20;101130.00;;;13.10
65823;BMP180;52585;47.566;19.056;2022-10-13T04:28:50;101125.40;;;13.10
65823;BMP180;52585;47.566;19.056;2022-10-13T04:31:17;101128.20;;;13.10
65823;BMP180;52585;47.566;19.056;2022-10-13T04:33:45;101129.40;;;13.10
65823;BMP180;52585;47.566;19.056;2022-10-13T04:36:13;101130.40;;;13.10
65823;BMP180;52585;47.566;19.056;2022-10-13T04:38:41;101127.00;;;13.00
65823;BMP180;52585;47.566;19.056;2022-10-13T04:41:08;101131.80;;;13.00
65823;BMP180;52585;47.566;19.056;2022-10-13T04:43:35;101133.60;;;13.00
65823;BMP180;52585;47.566;19.056;2022-10-13T04:46:16;101128.40;;;13.00
65823;BMP180;52585;47.566;19.056;2022-10-13T04:48:44;101128.20;;;13.00
65823;BMP180;52585;47.566;19.056;2022-10-13T04:51:17;101127.20;;;13.00
65823;BMP180;52585;47.566;19.056;2022-10-13T04:53:44;101132.20;;;13.00
65823;BMP180;52585;47.566;19.056;2022-10-13T04:56:15;101137.80;;;13.00
65823;BMP180;52585;47.566;19.056;2022-10-13T04:58:44;101135.80;;;13.00
65823;BMP180;52585;47.566;19.056;2022-10-13T05:01:21;101138.40;;;12.98
65823;BMP180;52585;47.566;19.056;2022-10-13T05:03:53;101140.40;;;12.92
65823;BMP180;52585;47.566;19.056;2022-10-13T05:06:29;101140.20;;;12.90
65823;BMP180;52585;47.566;19.056;2022-10-13T05:08:56;101138.60;;;12.90
65823;BMP180;52585;47.566;19.056;2022-10-13T05:11:25;101138.60;;;12.90
65823;BMP180;52585;47.566;19.056;2022-10-13T05:13:52;101140.40;;;12.90
65823;BMP180;52585;47.566;19.056;2022-10-13T05:16:20;101139.20;;;12.90
65823;BMP180;52585;47.566;19.056;2022-10-13T05:18:48;101139.60;;;12.90
65823;BMP180;52585;47.566;19.056;2022-10-13T05:21:19;101138.00;;;12.90
65823;BMP180;52585;47.566;19.056;2022-10-13T05:23:47;101143.20;;;12.90
65823;BMP180;52585;47.566;19.056;2022-10-13T05:26:16;101139.60;;;12.90
65823;BMP180;52585;47.566;19.056;2022-10-13T05:28:43;101137.80;;;12.90
65823;BMP180;52585;47.566;19.056;2022-10-13T05:31:19;101142.20;;;12.90
65823;BMP180;52585;47.566;19.056;2022-10-13T05:33:46;101143.60;;;12.90
65823;BMP180;52585;47.566;19.056;2022-10-13T05:36:20;101139.80;;;12.90
65823;BMP180;52585;47.566;19.056;2022-10-13T05:38:56;101138.60;;;12.90
65823;BMP180;52585;47.566;19.056;2022-10-13T05:41:25;101139.40;;;12.86
65823;BMP180;52585;47.566;19.056;2022-10-13T05:44:04;101144.60;;;12.80
65823;BMP180;52585;47.566;19.056;2022-10-13T05:46:31;101145.80;;;12.80
65823;BMP180;52585;47.566;19.056;2022-10-13T05:48:57;101152.40;;;12.80
65823;BMP180;52585;47.566;19.056;2022-10-13T05:51:35;101150.40;;;12.80
65823;BMP180;52585;47.566;19.056;2022-10-13T05:54:24;101156.20;;;12.80
65823;BMP180;52585;47.566;19.056;2022-10-13T05:57:10;101155.40;;;12.88
65823;BMP180;52585;47.566;19.056;2022-10-13T05:59:48;101161.40;;;12.90
65823;BMP180;52585;47.566;19.056;2022-10-13T06:02:18;101160.40;;;12.90
65823;BMP180;52585;47.566;19.056;2022-10-13T06:04:50;101163.00;;;12.90
65823;BMP180;52585;47.566;19.056;2022-10-13T06:07:17;101168.20;;;12.90
65823;BMP180;52585;47.566;19.056;2022-10-13T06:09:43;101165.60;;;12.90
65823;BMP180;52585;47.566;19.056;2022-10-13T06:12:09;101160.20;;;12.90
65823;BMP180;52585;47.566;19.056;2022-10-13T06:14:35;101162.80;;;12.90
65823;BMP180;52585;47.566;19.056;2022-10-13T06:17:01;101165.20;;;12.92
65823;BMP180;52585;47.566;19.056;2022-10-13T06:19:27;101167.40;;;13.00
65823;BMP180;52585;47.566;19.056;2022-10-13T06:21:53;101171.40;;;13.00
65823;BMP180;52585;47.566;19.056;2022-10-13T06:24:19;101166.60;;;13.00
65823;BMP180;52585;47.566;19.056;2022-10-13T06:26:45;101166.40;;;13.08
65823;BMP180;52585;47.566;19.056;2022-10-13T06:29:10;101165.40;;;13.10
65823;BMP180;52585;47.566;19.056;2022-10-13T06:31:36;101167.60;;;13.10
65823;BMP180;52585;47.566;19.056;2022-10-13T06:34:02;101164.80;;;13.10
65823;BMP180;52585;47.566;19.056;2022-10-13T06:36:28;101166.60;;;13.12
65823;BMP180;52585;47.566;19.056;2022-10-13T06:38:54;101167.40;;;13.20
65823;BMP180;52585;47.566;19.056;2022-10-13T06:41:20;101170.60;;;13.20
65823;BMP180;52585;47.566;19.056;2022-10-13T06:43:46;101174.60;;;13.20
65823;BMP180;52585;47.566;19.056;2022-10-13T06:46:12;101171.80;;;13.20
65823;BMP180;52585;47.566;19.056;2022-10-13T06:48:38;101167.80;;;13.20
65823;BMP180;52585;47.566;19.056;2022-10-13T06:51:08;101166.20;;;13.30
65823;BMP180;52585;47.566;19.056;2022-10-13T06:53:36;101168.20;;;13.30
65823;BMP180;52585;47.566;19.056;2022-10-13T06:56:05;101166.40;;;13.38
65823;BMP180;52585;47.566;19.056;2022-10-13T06:58:36;101166.20;;;13.42
65823;BMP180;52585;47.566;19.056;2022-10-13T07:01:05;101168.20;;;13.50
65823;BMP180;52585;47.566;19.056;2022-10-13T07:03:32;101168.80;;;13.50
65823;BMP180;52585;47.566;19.056;2022-10-13T07:06:03;101172.00;;;13.60
65823;BMP180;52585;47.566;19.056;2022-10-13T07:08:30;101175.20;;;13.60
65823;BMP180;52585;47.566;19.056;2022-10-13T07:10:56;101173.20;;;13.60
65823;BMP180;52585;47.566;19.056;2022-10-13T07:13:23;101168.80;;;13.60
65823;BMP180;52585;47.566;19.056;2022-10-13T07:15:49;101172.20;;;13.60
65823;BMP180;52585;47.566;19.056;2022-10-13T07:18:15;101172.00;;;13.60
65823;BMP180;52585;47.566;19.056;2022-10-13T07:20:41;101171.60;;;13.70
65823;BMP180;52585;47.566;19.056;2022-10-13T07:23:07;101175.40;;;13.70
65823;BMP180;52585;47.566;19.056;2022-10-13T07:25:33;101173.60;;;13.70
65823;BMP180;52585;47.566;19.056;2022-10-13T07:27:59;101172.20;;;13.70
65823;BMP180;52585;47.566;19.056;2022-10-13T07:30:25;101171.40;;;13.76
65823;BMP180;52585;47.566;19.056;2022-10-13T07:32:51;101172.00;;;13.80
65823;BMP180;52585;47.566;19.056;2022-10-13T07:35:18;101174.20;;;13.80
65823;BMP180;52585;47.566;19.056;2022-10-13T07:37:44;101174.20;;;13.80
65823;BMP180;52585;47.566;19.056;2022-10-13T07:40:10;101173.00;;;13.80
65823;BMP180;52585;47.566;19.056;2022-10-13T07:42:36;101174.00;;;13.82
65823;BMP180;52585;47.566;19.056;2022-10-13T07:45:03;101170.60;;;13.90
65823;BMP180;52585;47.566;19.056;2022-10-13T07:47:29;101172.20;;;13.90
65823;BMP180;52585;47.566;19.056;2022-10-13T07:49:55;101170.20;;;13.90
65823;BMP180;52585;47.566;19.056;2022-10-13T07:52:21;101168.80;;;14.00
65823;BMP180;52585;47.566;19.056;2022-10-13T07:54:47;101172.40;;;14.00
65823;BMP180;52585;47.566;19.056;2022-10-13T07:57:15;101170.80;;;14.10
65823;BMP180;52585;47.566;19.056;2022-10-13T07:59:41;101170.40;;;14.10
65823;BMP180;52585;47.566;19.056;2022-10-13T08:02:08;101168.80;;;14.14
65823;BMP180;52585;47.566;19.056;2022-10-13T08:04:35;101163.20;;;14.16
65823;BMP180;52585;47.566;19.056;2022-10-13T08:07:03;101158.60;;;14.20
65823;BMP180;52585;47.566;19.056;2022-10-13T08:09:30;101159.60;;;14.30
65823;BMP180;52585;47.566;19.056;2022-10-13T08:11:55;101158.60;;;14.30
65823;BMP180;52585;47.566;19.056;2022-10-13T08:14:22;101162.20;;;14.40
65823;BMP180;52585;47.566;19.056;2022-10-13T08:16:50;101162.20;;;14.40
65823;BMP180;52585;47.566;19.056;2022-10-13T08:19:17;101157.00;;;14.42
65823;BMP180;52585;47.566;19.056;2022-10-13T08:21:45;101159.20;;;14.50
65823;BMP180;52585;47.566;19.056;2022-10-13T08:24:16;101156.80;;;14.50
65823;BMP180;52585;47.566;19.056;2022-10-13T08:27:17;101155.60;;;14.60
65823;BMP180;52585;47.566;19.056;2022-10-13T08:29:43;101153.00;;;14.60
65823;BMP180;52585;47.566;19.056;2022-10-13T08:32:09;101149.80;;;14.68
65823;BMP180;52585;47.566;19.056;2022-10-13T08:34:35;101150.80;;;14.70
65823;BMP180;52585;47.566;19.056;2022-10-13T08:37:03;101148.60;;;14.70
65823;BMP180;52585;47.566;19.056;2022-10-13T08:39:29;101144.60;;;14.72
65823;BMP180;52585;47.566;19.056;2022-10-13T08:41:57;101140.00;;;14.80
65823;BMP180;52585;47.566;19.056;2022-10-13T08:44:41;101138.00;;;14.80
65823;BMP180;52585;47.566;19.056;2022-10-13T08:47:37;101138.60;;;14.86
65823;BMP180;52585;47.566;19.056;2022-10-13T08:50:21;101139.60;;;14.90
65823;BMP180;52585;47.566;19.056;2022-10-13T08:52:57;101136.40;;;14.90
65823;BMP180;52585;47.566;19.056;2022-10-13T08:55:34;101136.40;;;14.94
65823;BMP180;52585;47.566;19.056;2022-10-13T08:58:05;101138.80;;;15.00
65823;BMP180;52585;47.566;19.056;2022-10-13T09:00:36;101137.00;;;15.00
65823;BMP180;52585;47.566;19.056;2022-10-13T09:03:20;101133.60;;;15.00
65823;BMP180;52585;47.566;19.056;2022-10-13T09:06:14;101129.00;;;15.10
65823;BMP180;52585;47.566;19.056;2022-10-13T09:09:04;101129.80;;;15.10
65823;BMP180;52585;47.566;19.056;2022-10-13T09:11:35;101131.80;;;15.16
65823;BMP180;52585;47.566;19.056;2022-10-13T09:14:07;101125.60;;;15.20
65823;BMP180;52585;47.566;19.056;2022-10-13T09:16:36;101125.40;;;15.30
65823;BMP180;52585;47.566;19.056;2022-10-13T09:19:30;101122.40;;;15.30
65823;BMP180;52585;47.566;19.056;2022-10-13T09:22:24;101126.80;;;15.40
65823;BMP180;52585;47.566;19.056;2022-10-13T09:27:59;101125.40;;;15.40
65823;BMP180;52585;47.566;19.056;2022-10-13T09:30:42;101128.60;;;15.50
65823;BMP180;52585;47.566;19.056;2022-10-13T09:38:24;101118.40;;;15.50
65823;BMP180;52585;47.566;19.056;2022-10-13T09:43:42;101114.60;;;15.50
65823;BMP180;52585;47.566;19.056;2022-10-13T09:46:35;101110.80;;;15.60
65823;BMP180;52585;47.566;19.056;2022-10-13T09:49:37;101111.00;;;15.60
65823;BMP180;52585;47.566;19.056;2022-10-13T09:52:15;101106.20;;;15.68
65823;BMP180;52585;47.566;19.056;2022-10-13T09:54:49;101106.80;;;15.70
65823;BMP180;52585;47.566;19.056;2022-10-13T09:57:59;101106.00;;;15.70
65823;BMP180;52585;47.566;19.056;2022-10-13T10:00:24;101097.00;;;15.76
65823;BMP180;52585;47.566;19.056;2022-10-13T10:08:25;101092.00;;;15.80
65823;BMP180;52585;47.566;19.056;2022-10-13T10:10:53;101094.80;;;15.88
65823;BMP180;52585;47.566;19.056;2022-10-13T10:13:20;101089.60;;;15.90
65823;BMP180;52585;47.566;19.056;2022-10-13T10:18:59;101082.20;;;16.00
65823;BMP180;52585;47.566;19.056;2022-10-13T10:25:22;101074.20;;;16.10
65823;BMP180;52585;47.566;19.056;2022-10-13T10:27:55;101065.60;;;16.20
65823;BMP180;52585;47.566;19.056;2022-10-13T10:30:30;101065.20;;;16.26
65823;BMP180;52585;47.566;19.056;2022-10-13T10:33:08;101070.40;;;16.30
65823;BMP180;52585;47.566;19.056;2022-10-13T10:35:58;101064.20;;;16.30
65823;BMP180;52585;47.566;19.056;2022-10-13T10:41:54;101062.80;;;16.40
65823;BMP180;52585;47.566;19.056;2022-10-13T10:45:01;101055.60;;;16.40
65823;BMP180;52585;47.566;19.056;2022-10-13T10:47:42;101051.00;;;16.40
65823;BMP180;52585;47.566;19.056;2022-10-13T10:50:18;101052.20;;;16.40
65823;BMP180;52585;47.566;19.056;2022-10-13T10:53:01;101048.20;;;16.40
65823;BMP180;52585;47.566;19.056;2022-10-13T10:55:57;101045.80;;;16.46
65823;BMP180;52585;47.566;19.056;2022-10-13T11:01:25;101036.40;;;16.50
65823;BMP180;52585;47.566;19.056;2022-10-13T11:07:03;101029.40;;;16.50
65823;BMP180;52585;47.566;19.056;2022-10-13T11:12:47;101019.40;;;16.60
65823;BMP180;52585;47.566;19.056;2022-10-13T11:15:24;101011.20;;;16.60
65823;BMP180;52585;47.566;19.056;2022-10-13T11:17:52;101012.60;;;16.60
65823;BMP180;52585;47.566;19.056;2022-10-13T11:25:45;101002.20;;;16.70
65823;BMP180;52585;47.566;19.056;2022-10-13T11:31:21;100997.60;;;16.70
65823;BMP180;52585;47.566;19.056;2022-10-13T11:36:48;100991.40;;;16.70
65823;BMP180;52585;47.566;19.056;2022-10-13T11:42:20;100980.00;;;16.70
65823;BMP180;52585;47.566;19.056;2022-10-13T11:45:12;100984.00;;;16.70
65823;BMP180;52585;47.566;19.056;2022-10-13T11:48:31;100980.60;;;16.72
65823;BMP180;52585;47.566;19.056;2022-10-13T11:51:39;100970.00;;;16.80
65823;BMP180;52585;47.566;19.056;2022-10-13T11:57:23;100964.60;;;16.80
65823;BMP180;52585;47.566;19.056;2022-10-13T11:59:53;100965.20;;;16.80
65823;BMP180;52585;47.566;19.056;2022-10-13T12:02:24;100960.20;;;16.80
65823;BMP180;52585;47.566;19.056;2022-10-13T12:05:38;100957.60;;;16.80
65823;BMP180;52585;47.566;19.056;2022-10-13T12:08:05;100952.40;;;16.80
65823;BMP180;52585;47.566;19.056;2022-10-13T12:10:36;100948.00;;;16.80
65823;BMP180;52585;47.566;19.056;2022-10-13T12:13:04;100947.40;;;16.90
65823;BMP180;52585;47.566;19.056;2022-10-13T12:15:40;100944.40;;;16.90
65823;BMP180;52585;47.566;19.056;2022-10-13T12:18:39;100944.80;;;16.90
65823;BMP180;52585;47.566;19.056;2022-10-13T12:21:21;100937.80;;;16.90
65823;BMP180;52585;47.566;19.056;2022-10-13T12:23:50;100938.40;;;16.90
65823;BMP180;52585;47.566;19.056;2022-10-13T12:26:22;100936.20;;;17.00
65823;BMP180;52585;47.566;19.056;2022-10-13T12:28:58;100930.60;;;17.00
65823;BMP180;52585;47.566;19.056;2022-10-13T12:31:29;100932.20;;;17.00
65823;BMP180;52585;47.566;19.056;2022-10-13T12:34:03;100925.80;;;17.00
65823;BMP180;52585;47.566;19.056;2022-10-13T12:36:33;100927.40;;;17.04
65823;BMP180;52585;47.566;19.056;2022-10-13T12:39:15;100922.40;;;17.10
65823;BMP180;52585;47.566;19.056;2022-10-13T12:41:45;100917.20;;;17.10
65823;BMP180;52585;47.566;19.056;2022-10-13T12:44:26;100915.60;;;17.10
65823;BMP180;52585;47.566;19.056;2022-10-13T12:46:55;100916.80;;;17.20
65823;BMP180;52585;47.566;19.056;2022-10-13T12:49:30;100915.60;;;17.20
65823;BMP180;52585;47.566;19.056;2022-10-13T12:52:14;100914.60;;;17.20
65823;BMP180;52585;47.566;19.056;2022-10-13T12:54:55;100908.00;;;17.20
65823;BMP180;52585;47.566;19.056;2022-10-13T12:57:37;100914.40;;;17.20
65823;BMP180;52585;47.566;19.056;2022-10-13T13:02:53;100913.40;;;17.20
65823;BMP180;52585;47.566;19.056;2022-10-13T13:05:42;100906.00;;;17.20
65823;BMP180;52585;47.566;19.056;2022-10-13T13:08:29;100903.00;;;17.22
65823;BMP180;52585;47.566;19.056;2022-10-13T13:11:06;100905.80;;;17.22
65823;BMP180;52585;47.566;19.056;2022-10-13T13:13:34;100903.00;;;17.20
65823;BMP180;52585;47.566;19.056;2022-10-13T13:16:18;100902.20;;;17.22
65823;BMP180;52585;47.566;19.056;2022-10-13T13:18:47;100900.00;;;17.30
65823;BMP180;52585;47.566;19.056;2022-10-13T13:21:17;100902.00;;;17.30
65823;BMP180;52585;47.566;19.056;2022-10-13T13:23:46;100896.20;;;17.30
65823;BMP180;52585;47.566;19.056;2022-10-13T13:28:50;100889.60;;;17.30
65823;BMP180;52585;47.566;19.056;2022-10-13T13:31:19;100889.00;;;17.30
65823;BMP180;52585;47.566;19.056;2022-10-13T13:33:47;100891.60;;;17.30
65823;BMP180;52585;47.566;19.056;2022-10-13T13:36:20;100886.60;;;17.30
65823;BMP180;52585;47.566;19.056;2022-10-13T13:38:49;100880.20;;;17.30
65823;BMP180;52585;47.566;19.056;2022-10-13T13:41:16;100877.20;;;17.30
65823;BMP180;52585;47.566;19.056;2022-10-13T13:43:42;100875.60;;;17.30
65823;BMP180;52585;47.566;19.056;2022-10-13T13:46:23;100879.40;;;17.30
65823;BMP180;52585;47.566;19.056;2022-10-13T13:48:50;100874.80;;;17.30
65823;BMP180;52585;47.566;19.056;2022-10-13T13:51:16;100872.60;;;17.30
65823;BMP180;52585;47.566;19.056;2022-10-13T13:53:42;100867.60;;;17.30
65823;BMP180;52585;47.566;19.056;2022-10-13T13:56:14;100867.80;;;17.30
65823;BMP180;52585;47.566;19.056;2022-10-13T13:58:41;100867.80;;;17.30
65823;BMP180;52585;47.566;19.056;2022-10-13T14:01:07;100868.20;;;17.30
65823;BMP180;52585;47.566;19.056;2022-10-13T14:03:33;100866.40;;;17.30
65823;BMP180;52585;47.566;19.056;2022-10-13T14:05:59;100872.40;;;17.30
65823;BMP180;52585;47.566;19.056;2022-10-13T14:08:29;100868.80;;;17.30
65823;BMP180;52585;47.566;19.056;2022-10-13T14:10:55;100871.40;;;17.30
65823;BMP180;52585;47.566;19.056;2022-10-13T14:13:24;100872.40;;;17.30
65823;BMP180;52585;47.566;19.056;2022-10-13T14:16:00;100869.40;;;17.30
65823;BMP180;52585;47.566;19.056;2022-10-13T14:18:29;100868.00;;;17.30
65823;BMP180;52585;47.566;19.056;2022-10-13T14:20:56;100868.20;;;17.30
65823;BMP180;52585;47.566;19.056;2022-10-13T14:23:22;100867.00;;;17.30
65823;BMP180;52585;47.566;19.056;2022-10-13T14:25:47;100862.20;;;17.30
65823;BMP180;52585;47.566;19.056;2022-10-13T14:28:13;100862.60;;;17.30
65823;BMP180;52585;47.566;19.056;2022-10-13T14:30:40;100857.00;;;17.30
65823;BMP180;52585;47.566;19.056;2022-10-13T14:33:07;100859.40;;;17.30
65823;BMP180;52585;47.566;19.056;2022-10-13T14:35:34;100857.40;;;17.30
65823;BMP180;52585;47.566;19.056;2022-10-13T14:38:00;100860.80;;;17.34
65823;BMP180;52585;47.566;19.056;2022-10-13T14:40:26;100863.80;;;17.40
65823;BMP180;52585;47.566;19.056;2022-10-13T14:42:51;100858.60;;;17.38
65823;BMP180;52585;47.566;19.056;2022-10-13T14:45:17;100858.20;;;17.40
65823;BMP180;52585;47.566;19.056;2022-10-13T14:47:43;100856.60;;;17.38
65823;BMP180;52585;47.566;19.056;2022-10-13T14:50:10;100856.40;;;17.38
65823;BMP180;52585;47.566;19.056;2022-10-13T14:52:36;100856.40;;;17.40
65823;BMP180;52585;47.566;19.056;2022-10-13T14:55:02;100858.60;;;17.38
65823;BMP180;52585;47.566;19.056;2022-10-13T14:57:29;100853.80;;;17.40
65823;BMP180;52585;47.566;19.056;2022-10-13T14:59:58;100854.80;;;17.40
65823;BMP180;52585;47.566;19.056;2022-10-13T15:02:24;100852.80;;;17.40
65823;BMP180;52585;47.566;19.056;2022-10-13T15:04:50;100853.00;;;17.38
65823;BMP180;52585;47.566;19.056;2022-10-13T15:07:16;100850.80;;;17.36
65823;BMP180;52585;47.566;19.056;2022-10-13T15:09:42;100852.40;;;17.30
65823;BMP180;52585;47.566;19.056;2022-10-13T15:12:08;100848.80;;;17.30
65823;BMP180;52585;47.566;19.056;2022-10-13T15:14:35;100847.40;;;17.30
65823;BMP180;52585;47.566;19.056;2022-10-13T15:17:01;100848.40;;;17.30
65823;BMP180;52585;47.566;19.056;2022-10-13T15:19:28;100845.60;;;17.30
65823;BMP180;52585;47.566;19.056;2022-10-13T15:21:55;100845.80;;;17.30
65823;BMP180;52585;47.566;19.056;2022-10-13T15:24:23;100848.00;;;17.30
65823;BMP180;52585;47.566;19.056;2022-10-13T15:26:49;100842.00;;;17.30
65823;BMP180;52585;47.566;19.056;2022-10-13T15:29:15;100845.40;;;17.30